sensor_id;sensor_type;location;lat;lon;timestamp;temperature;humidity
16128;DHT22;8168;49.036;7.690;2022-12-29T00:01:18;12.00;99.90
16128;DHT22;8168;49.036;7.690;2022-12-29T00:03:48;12.00;99.90
16128;DHT22;8168;49.036;7.690;2022-12-29T00:06:19;12.00;99.90
16128;DHT22;8168;49.036;7.690;2022-12-29T00:08:50;12.00;99.90
16128;DHT22;8168;49.036;7.690;2022-12-29T00:11:25;12.00;99.90
16128;DHT22;8168;49.036;7.690;2022-12-29T00:13:56;12.00;99.90
16128;DHT22;8168;49.036;7.690;2022-12-29T00:16:45;12.00;99.90
16128;DHT22;8168;49.036;7.690;2022-12-29T00:19:16;11.90;99.90
16128;DHT22;8168;49.036;7.690;2022-12-29T00:22:05;11.80;99.90
16128;DHT22;8168;49.036;7.690;2022-12-29T00:24:55;11.80;99.90
16128;DHT22;8168;49.036;7.690;2022-12-29T00:27:32;11.70;99.90
16128;DHT22;8168;49.036;7.690;2022-12-29T00:30:22;12.50;99.90
16128;DHT22;8168;49.036;7.690;2022-12-29T00:33:18;11.40;99.90
16128;DHT22;8168;49.036;7.690;2022-12-29T00:36:13;11.30;99.90
16128;DHT22;8168;49.036;7.690;2022-12-29T00:38:49;11.10;99.90
16128;DHT22;8168;49.036;7.690;2022-12-29T00:41:40;11.00;99.90
16128;DHT22;8168;49.036;7.690;2022-12-29T00:44:28;11.00;99.90
16128;DHT22;8168;49.036;7.690;2022-12-29T00:46:59;10.90;99.90
16128;DHT22;8168;49.036;7.690;2022-12-29T00:49:33;10.90;99.90
16128;DHT22;8168;49.036;7.690;2022-12-29T00:52:10;10.90;99.90
16128;DHT22;8168;49.036;7.690;2022-12-29T00:54:41;10.80;99.90
16128;DHT22;8168;49.036;7.690;2022-12-29T00:57:12;10.80;99.90
16128;DHT22;8168;49.036;7.690;2022-12-29T00:59:42;10.80;99.90
16128;DHT22;8168;49.036;7.690;2022-12-29T01:02:13;10.80;99.90
16128;DHT22;8168;49.036;7.690;2022-12-29T01:04:44;10.80;99.90
16128;DHT22;8168;49.036;7.690;2022-12-29T01:07:14;10.80;99.90
16128;DHT22;8168;49.036;7.690;2022-12-29T01:09:45;10.70;99.90
16128;DHT22;8168;49.036;7.690;2022-12-29T01:12:34;10.70;99.90
16128;DHT22;8168;49.036;7.690;2022-12-29T01:15:12;10.70;99.90
16128;DHT22;8168;49.036;7.690;2022-12-29T01:17:44;10.70;99.90
16128;DHT22;8168;49.036;7.690;2022-12-29T01:20:14;10.70;99.90
16128;DHT22;8168;49.036;7.690;2022-12-29T01:22:45;10.60;99.90
16128;DHT22;8168;49.036;7.690;2022-12-29T01:25:16;10.60;99.90
16128;DHT22;8168;49.036;7.690;2022-12-29T01:27:46;10.60;99.90
16128;DHT22;8168;49.036;7.690;2022-12-29T01:30:17;10.60;99.90
16128;DHT22;8168;49.036;7.690;2022-12-29T01:32:47;10.60;99.90
16128;DHT22;8168;49.036;7.690;2022-12-29T01:35:18;10.70;99.90
16128;DHT22;8168;49.036;7.690;2022-12-29T01:37:49;10.70;99.90
16128;DHT22;8168;49.036;7.690;2022-12-29T01:40:19;10.70;99.90
16128;DHT22;8168;49.036;7.690;2022-12-29T01:42:50;10.80;99.90
16128;DHT22;8168;49.036;7.690;2022-12-29T01:45:21;10.80;99.90
16128;DHT22;8168;49.036;7.690;2022-12-29T01:48:00;10.90;99.90
16128;DHT22;8168;49.036;7.690;2022-12-29T01:50:46;10.80;99.90
16128;DHT22;8168;49.036;7.690;2022-12-29T01:53:29;10.80;99.90
16128;DHT22;8168;49.036;7.690;2022-12-29T01:56:04;10.70;99.90
16128;DHT22;8168;49.036;7.690;2022-12-29T01:58:39;10.80;99.90
16128;DHT22;8168;49.036;7.690;2022-12-29T02:01:12;10.80;99.90
16128;DHT22;8168;49.036;7.690;2022-12-29T02:03:43;10.70;99.90
16128;DHT22;8168;49.036;7.690;2022-12-29T02:06:27;10.70;99.90
16128;DHT22;8168;49.036;7.690;2022-12-29T02:08:59;10.80;99.90
16128;DHT22;8168;49.036;7.690;2022-12-29T02:11:30;10.70;99.90
16128;DHT22;8168;49.036;7.690;2022-12-29T02:14:09;10.80;99.90
16128;DHT22;8168;49.036;7.690;2022-12-29T02:17:35;10.80;99.90
16128;DHT22;8168;49.036;7.690;2022-12-29T02:45:07;11.10;99.90
16128;DHT22;8168;49.036;7.690;2022-12-29T02:50:50;11.10;99.90
16128;DHT22;8168;49.036;7.690;2022-12-29T02:53:23;11.10;99.90
16128;DHT22;8168;49.036;7.690;2022-12-29T02:56:14;11.20;99.90
16128;DHT22;8168;49.036;7.690;2022-12-29T02:58:44;11.20;99.90
16128;DHT22;8168;49.036;7.690;2022-12-29T03:15:39;11.40;99.90
16128;DHT22;8168;49.036;7.690;2022-12-29T03:21:16;11.40;99.90
16128;DHT22;8168;49.036;7.690;2022-12-29T03:23:49;11.40;99.90
16128;DHT22;8168;49.036;7.690;2022-12-29T03:26:20;11.50;99.90
16128;DHT22;8168;49.036;7.690;2022-12-29T03:28:53;11.50;99.90
16128;DHT22;8168;49.036;7.690;2022-12-29T03:31:25;11.50;99.90
16128;DHT22;8168;49.036;7.690;2022-12-29T03:33:56;11.50;99.90
16128;DHT22;8168;49.036;7.690;2022-12-29T03:36:33;11.60;99.90
16128;DHT22;8168;49.036;7.690;2022-12-29T03:39:10;11.60;99.90
16128;DHT22;8168;49.036;7.690;2022-12-29T03:41:44;11.60;99.90
16128;DHT22;8168;49.036;7.690;2022-12-29T03:44:15;11.70;99.90
16128;DHT22;8168;49.036;7.690;2022-12-29T03:46:45;11.70;99.90
16128;DHT22;8168;49.036;7.690;2022-12-29T03:49:16;11.80;99.90
16128;DHT22;8168;49.036;7.690;2022-12-29T03:51:46;11.80;99.90
16128;DHT22;8168;49.036;7.690;2022-12-29T03:54:17;11.90;99.90
16128;DHT22;8168;49.036;7.690;2022-12-29T03:56:48;11.90;99.90
16128;DHT22;8168;49.036;7.690;2022-12-29T03:59:18;11.90;99.90
16128;DHT22;8168;49.036;7.690;2022-12-29T04:01:49;11.90;99.90
16128;DHT22;8168;49.036;7.690;2022-12-29T04:04:20;12.00;99.90
16128;DHT22;8168;49.036;7.690;2022-12-29T04:06:51;12.00;99.90
16128;DHT22;8168;49.036;7.690;2022-12-29T04:09:21;12.00;99.90
16128;DHT22;8168;49.036;7.690;2022-12-29T04:11:52;12.10;99.90
16128;DHT22;8168;49.036;7.690;2022-12-29T04:14:22;12.10;99.90
16128;DHT22;8168;49.036;7.690;2022-12-29T04:16:53;12.00;99.90
16128;DHT22;8168;49.036;7.690;2022-12-29T04:19:23;12.10;99.90
16128;DHT22;8168;49.036;7.690;2022-12-29T04:21:54;12.10;99.90
16128;DHT22;8168;49.036;7.690;2022-12-29T04:24:25;12.10;99.90
16128;DHT22;8168;49.036;7.690;2022-12-29T04:26:55;12.10;99.90
16128;DHT22;8168;49.036;7.690;2022-12-29T04:29:26;12.10;99.90
16128;DHT22;8168;49.036;7.690;2022-12-29T04:31:56;12.10;99.90
16128;DHT22;8168;49.036;7.690;2022-12-29T04:34:27;12.00;99.90
16128;DHT22;8168;49.036;7.690;2022-12-29T04:36:57;11.90;99.90
16128;DHT22;8168;49.036;7.690;2022-12-29T04:39:28;11.90;99.90
16128;DHT22;8168;49.036;7.690;2022-12-29T04:41:59;11.80;99.90
16128;DHT22;8168;49.036;7.690;2022-12-29T04:44:29;11.80;99.90
16128;DHT22;8168;49.036;7.690;2022-12-29T04:47:00;11.80;99.90
16128;DHT22;8168;49.036;7.690;2022-12-29T04:49:30;11.80;99.90
16128;DHT22;8168;49.036;7.690;2022-12-29T04:52:01;11.80;99.90
16128;DHT22;8168;49.036;7.690;2022-12-29T04:54:32;11.80;99.90
16128;DHT22;8168;49.036;7.690;2022-12-29T04:57:03;11.80;99.90
16128;DHT22;8168;49.036;7.690;2022-12-29T04:59:34;11.90;99.90
16128;DHT22;8168;49.036;7.690;2022-12-29T05:02:04;11.90;99.90
16128;DHT22;8168;49.036;7.690;2022-12-29T05:04:35;11.90;99.90
16128;DHT22;8168;49.036;7.690;2022-12-29T05:07:05;11.90;99.90
16128;DHT22;8168;49.036;7.690;2022-12-29T05:09:36;11.90;99.90
16128;DHT22;8168;49.036;7.690;2022-12-29T05:12:07;12.00;99.90
16128;DHT22;8168;49.036;7.690;2022-12-29T05:14:37;12.00;99.90
16128;DHT22;8168;49.036;7.690;2022-12-29T05:17:08;12.00;99.90
16128;DHT22;8168;49.036;7.690;2022-12-29T05:19:38;12.00;99.90
16128;DHT22;8168;49.036;7.690;2022-12-29T05:22:09;12.10;99.90
16128;DHT22;8168;49.036;7.690;2022-12-29T05:24:39;12.10;99.90
16128;DHT22;8168;49.036;7.690;2022-12-29T05:27:10;12.10;99.90
16128;DHT22;8168;49.036;7.690;2022-12-29T05:29:41;12.20;99.90
16128;DHT22;8168;49.036;7.690;2022-12-29T05:32:11;12.30;99.90
16128;DHT22;8168;49.036;7.690;2022-12-29T05:34:42;12.20;99.90
16128;DHT22;8168;49.036;7.690;2022-12-29T05:37:12;12.30;99.90
16128;DHT22;8168;49.036;7.690;2022-12-29T05:39:43;12.30;99.90
16128;DHT22;8168;49.036;7.690;2022-12-29T05:42:14;12.30;99.90
16128;DHT22;8168;49.036;7.690;2022-12-29T05:44:44;12.30;99.90
16128;DHT22;8168;49.036;7.690;2022-12-29T05:47:15;12.30;99.90
16128;DHT22;8168;49.036;7.690;2022-12-29T05:49:46;12.40;99.90
16128;DHT22;8168;49.036;7.690;2022-12-29T05:52:16;12.40;99.90
16128;DHT22;8168;49.036;7.690;2022-12-29T05:54:47;12.40;99.90
16128;DHT22;8168;49.036;7.690;2022-12-29T05:57:17;12.60;99.90
16128;DHT22;8168;49.036;7.690;2022-12-29T05:59:48;12.60;99.90
16128;DHT22;8168;49.036;7.690;2022-12-29T06:02:19;12.60;99.90
16128;DHT22;8168;49.036;7.690;2022-12-29T06:04:49;12.60;99.90
16128;DHT22;8168;49.036;7.690;2022-12-29T06:07:20;12.60;99.90
16128;DHT22;8168;49.036;7.690;2022-12-29T06:09:50;12.60;99.90
16128;DHT22;8168;49.036;7.690;2022-12-29T06:12:21;12.60;99.90
16128;DHT22;8168;49.036;7.690;2022-12-29T06:14:51;12.70;99.90
16128;DHT22;8168;49.036;7.690;2022-12-29T06:17:22;12.70;99.90
16128;DHT22;8168;49.036;7.690;2022-12-29T06:19:53;12.70;99.90
16128;DHT22;8168;49.036;7.690;2022-12-29T06:22:23;12.70;99.90
16128;DHT22;8168;49.036;7.690;2022-12-29T06:24:54;12.70;99.90
16128;DHT22;8168;49.036;7.690;2022-12-29T06:27:25;12.80;99.90
16128;DHT22;8168;49.036;7.690;2022-12-29T06:29:58;12.80;99.90
16128;DHT22;8168;49.036;7.690;2022-12-29T06:32:29;15.80;99.90
16128;DHT22;8168;49.036;7.690;2022-12-29T06:35:00;12.80;99.90
16128;DHT22;8168;49.036;7.690;2022-12-29T06:37:30;12.80;99.90
16128;DHT22;8168;49.036;7.690;2022-12-29T06:40:01;12.90;99.90
16128;DHT22;8168;49.036;7.690;2022-12-29T06:42:32;13.00;99.90
16128;DHT22;8168;49.036;7.690;2022-12-29T06:45:03;13.00;99.90
16128;DHT22;8168;49.036;7.690;2022-12-29T06:47:34;13.00;99.90
16128;DHT22;8168;49.036;7.690;2022-12-29T06:50:05;15.50;99.90
16128;DHT22;8168;49.036;7.690;2022-12-29T06:52:36;13.00;99.90
16128;DHT22;8168;49.036;7.690;2022-12-29T06:55:07;13.10;99.90
16128;DHT22;8168;49.036;7.690;2022-12-29T06:57:38;13.10;99.90
16128;DHT22;8168;49.036;7.690;2022-12-29T07:00:09;13.20;99.90
16128;DHT22;8168;49.036;7.690;2022-12-29T07:02:40;13.20;99.90
16128;DHT22;8168;49.036;7.690;2022-12-29T07:05:11;13.20;99.90
16128;DHT22;8168;49.036;7.690;2022-12-29T07:07:41;13.20;99.90
16128;DHT22;8168;49.036;7.690;2022-12-29T07:10:12;13.20;99.90
16128;DHT22;8168;49.036;7.690;2022-12-29T07:12:43;13.20;99.90
16128;DHT22;8168;49.036;7.690;2022-12-29T07:15:13;13.30;99.90
16128;DHT22;8168;49.036;7.690;2022-12-29T07:17:44;13.20;99.90
16128;DHT22;8168;49.036;7.690;2022-12-29T07:20:15;13.30;99.90
16128;DHT22;8168;49.036;7.690;2022-12-29T07:22:45;13.30;99.90
16128;DHT22;8168;49.036;7.690;2022-12-29T07:25:17;13.20;99.90
16128;DHT22;8168;49.036;7.690;2022-12-29T07:27:48;13.30;99.90
16128;DHT22;8168;49.036;7.690;2022-12-29T07:30:19;13.30;99.90
16128;DHT22;8168;49.036;7.690;2022-12-29T07:32:49;13.30;99.90
16128;DHT22;8168;49.036;7.690;2022-12-29T07:35:20;13.20;99.90
16128;DHT22;8168;49.036;7.690;2022-12-29T07:37:50;13.20;99.90
16128;DHT22;8168;49.036;7.690;2022-12-29T07:40:21;13.20;99.90
16128;DHT22;8168;49.036;7.690;2022-12-29T07:42:52;13.20;99.90
16128;DHT22;8168;49.036;7.690;2022-12-29T07:45:22;13.20;99.90
16128;DHT22;8168;49.036;7.690;2022-12-29T07:47:53;11.80;99.90
16128;DHT22;8168;49.036;7.690;2022-12-29T07:50:23;13.20;99.90
16128;DHT22;8168;49.036;7.690;2022-12-29T07:52:54;13.20;99.90
16128;DHT22;8168;49.036;7.690;2022-12-29T07:55:24;13.20;99.90
16128;DHT22;8168;49.036;7.690;2022-12-29T07:57:56;13.20;99.90
16128;DHT22;8168;49.036;7.690;2022-12-29T08:00:27;13.20;99.90
16128;DHT22;8168;49.036;7.690;2022-12-29T08:02:57;13.20;99.90
16128;DHT22;8168;49.036;7.690;2022-12-29T08:05:28;13.20;99.90
16128;DHT22;8168;49.036;7.690;2022-12-29T08:08:00;13.20;99.90
16128;DHT22;8168;49.036;7.690;2022-12-29T08:10:30;13.20;99.90
16128;DHT22;8168;49.036;7.690;2022-12-29T08:13:01;13.10;99.90
16128;DHT22;8168;49.036;7.690;2022-12-29T08:15:32;13.10;99.90
16128;DHT22;8168;49.036;7.690;2022-12-29T08:18:03;13.10;99.90
16128;DHT22;8168;49.036;7.690;2022-12-29T08:20:34;13.10;99.90
16128;DHT22;8168;49.036;7.690;2022-12-29T08:23:04;13.10;99.90
16128;DHT22;8168;49.036;7.690;2022-12-29T08:25:35;13.10;99.90
16128;DHT22;8168;49.036;7.690;2022-12-29T08:28:06;13.10;99.90
16128;DHT22;8168;49.036;7.690;2022-12-29T08:30:36;13.10;99.90
16128;DHT22;8168;49.036;7.690;2022-12-29T08:33:07;13.10;99.90
16128;DHT22;8168;49.036;7.690;2022-12-29T08:35:37;13.10;99.90
16128;DHT22;8168;49.036;7.690;2022-12-29T08:38:08;13.00;99.90
16128;DHT22;8168;49.036;7.690;2022-12-29T08:40:39;13.00;99.90
16128;DHT22;8168;49.036;7.690;2022-12-29T08:43:09;13.00;99.90
16128;DHT22;8168;49.036;7.690;2022-12-29T08:45:40;12.90;99.90
16128;DHT22;8168;49.036;7.690;2022-12-29T08:48:11;12.90;99.90
16128;DHT22;8168;49.036;7.690;2022-12-29T08:50:43;12.80;99.90
16128;DHT22;8168;49.036;7.690;2022-12-29T08:53:13;12.70;99.90
16128;DHT22;8168;49.036;7.690;2022-12-29T08:55:55;12.70;99.90
16128;DHT22;8168;49.036;7.690;2022-12-29T08:58:26;12.60;99.90
16128;DHT22;8168;49.036;7.690;2022-12-29T09:00:58;12.50;99.90
16128;DHT22;8168;49.036;7.690;2022-12-29T09:03:28;12.50;99.90
16128;DHT22;8168;49.036;7.690;2022-12-29T09:05:59;12.50;99.90
16128;DHT22;8168;49.036;7.690;2022-12-29T09:08:29;12.50;99.90
16128;DHT22;8168;49.036;7.690;2022-12-29T09:11:15;12.50;99.90
16128;DHT22;8168;49.036;7.690;2022-12-29T09:13:46;12.40;99.90
16128;DHT22;8168;49.036;7.690;2022-12-29T09:16:17;12.30;99.90
16128;DHT22;8168;49.036;7.690;2022-12-29T09:18:48;12.30;99.90
16128;DHT22;8168;49.036;7.690;2022-12-29T09:21:18;12.30;99.90
16128;DHT22;8168;49.036;7.690;2022-12-29T09:23:49;12.30;99.90
16128;DHT22;8168;49.036;7.690;2022-12-29T09:26:20;12.20;99.90
16128;DHT22;8168;49.036;7.690;2022-12-29T09:28:50;12.20;99.90
16128;DHT22;8168;49.036;7.690;2022-12-29T09:31:21;12.30;99.90
16128;DHT22;8168;49.036;7.690;2022-12-29T09:33:52;12.20;99.90
16128;DHT22;8168;49.036;7.690;2022-12-29T09:36:23;12.20;99.90
16128;DHT22;8168;49.036;7.690;2022-12-29T09:38:53;12.00;99.90
16128;DHT22;8168;49.036;7.690;2022-12-29T09:41:36;12.00;99.90
16128;DHT22;8168;49.036;7.690;2022-12-29T09:44:23;12.00;99.90
16128;DHT22;8168;49.036;7.690;2022-12-29T09:46:56;11.90;99.90
16128;DHT22;8168;49.036;7.690;2022-12-29T09:49:43;11.90;99.90
16128;DHT22;8168;49.036;7.690;2022-12-29T09:52:20;11.90;99.90
16128;DHT22;8168;49.036;7.690;2022-12-29T09:55:04;11.80;99.90
16128;DHT22;8168;49.036;7.690;2022-12-29T09:58:19;11.90;99.90
16128;DHT22;8168;49.036;7.690;2022-12-29T10:01:00;11.80;99.90
16128;DHT22;8168;49.036;7.690;2022-12-29T10:06:46;11.80;99.90
16128;DHT22;8168;49.036;7.690;2022-12-29T10:23:52;11.60;99.90
16128;DHT22;8168;49.036;7.690;2022-12-29T10:26:27;11.60;99.90
16128;DHT22;8168;49.036;7.690;2022-12-29T10:29:20;11.60;99.90
16128;DHT22;8168;49.036;7.690;2022-12-29T10:31:58;11.70;99.90
16128;DHT22;8168;49.036;7.690;2022-12-29T10:34:29;11.70;99.90
16128;DHT22;8168;49.036;7.690;2022-12-29T10:40:17;11.80;99.90
16128;DHT22;8168;49.036;7.690;2022-12-29T10:42:53;11.80;99.90
16128;DHT22;8168;49.036;7.690;2022-12-29T10:45:30;12.00;99.90
16128;DHT22;8168;49.036;7.690;2022-12-29T10:48:32;12.20;99.90
16128;DHT22;8168;49.036;7.690;2022-12-29T10:51:05;12.30;99.90
16128;DHT22;8168;49.036;7.690;2022-12-29T10:53:53;12.30;99.90
16128;DHT22;8168;49.036;7.690;2022-12-29T10:59:10;12.40;99.90
16128;DHT22;8168;49.036;7.690;2022-12-29T11:07:24;12.40;99.90
16128;DHT22;8168;49.036;7.690;2022-12-29T11:10:56;12.50;99.90
16128;DHT22;8168;49.036;7.690;2022-12-29T11:13:25;12.50;99.90
16128;DHT22;8168;49.036;7.690;2022-12-29T11:15:55;12.50;99.90
16128;DHT22;8168;49.036;7.690;2022-12-29T11:18:28;12.60;99.90
16128;DHT22;8168;49.036;7.690;2022-12-29T11:21:05;12.60;99.90
16128;DHT22;8168;49.036;7.690;2022-12-29T11:23:41;12.60;99.90
16128;DHT22;8168;49.036;7.690;2022-12-29T11:26:21;12.60;99.90
16128;DHT22;8168;49.036;7.690;2022-12-29T11:31:57;12.60;99.90
16128;DHT22;8168;49.036;7.690;2022-12-29T11:34:35;12.60;99.90
16128;DHT22;8168;49.036;7.690;2022-12-29T11:37:15;12.60;99.90
16128;DHT22;8168;49.036;7.690;2022-12-29T11:40:15;12.50;99.90
16128;DHT22;8168;49.036;7.690;2022-12-29T11:42:55;12.50;99.90
16128;DHT22;8168;49.036;7.690;2022-12-29T11:45:30;12.50;99.90
16128;DHT22;8168;49.036;7.690;2022-12-29T11:48:08;12.40;99.90
16128;DHT22;8168;49.036;7.690;2022-12-29T11:50:40;12.30;99.90
16128;DHT22;8168;49.036;7.690;2022-12-29T11:53:26;12.20;99.90
16128;DHT22;8168;49.036;7.690;2022-12-29T11:56:04;12.20;99.90
16128;DHT22;8168;49.036;7.690;2022-12-29T11:58:37;12.20;99.90
16128;DHT22;8168;49.036;7.690;2022-12-29T12:06:42;12.30;99.90
16128;DHT22;8168;49.036;7.690;2022-12-29T12:09:21;12.30;99.90
16128;DHT22;8168;49.036;7.690;2022-12-29T12:11:54;12.30;99.90
16128;DHT22;8168;49.036;7.690;2022-12-29T12:14:38;12.40;99.90
16128;DHT22;8168;49.036;7.690;2022-12-29T12:17:16;12.30;99.90
16128;DHT22;8168;49.036;7.690;2022-12-29T12:19:58;12.40;99.90
16128;DHT22;8168;49.036;7.690;2022-12-29T12:22:37;12.30;99.90
16128;DHT22;8168;49.036;7.690;2022-12-29T12:28:32;12.40;99.90
16128;DHT22;8168;49.036;7.690;2022-12-29T12:31:12;12.30;99.90
16128;DHT22;8168;49.036;7.690;2022-12-29T12:33:49;12.20;99.90
16128;DHT22;8168;49.036;7.690;2022-12-29T12:41:46;12.10;99.90
16128;DHT22;8168;49.036;7.690;2022-12-29T13:10:41;12.10;99.90
16128;DHT22;8168;49.036;7.690;2022-12-29T13:30:10;12.00;99.90
16128;DHT22;8168;49.036;7.690;2022-12-29T13:32:57;12.00;99.90
16128;DHT22;8168;49.036;7.690;2022-12-29T13:38:39;12.00;99.90
16128;DHT22;8168;49.036;7.690;2022-12-29T13:41:32;9.80;99.90
16128;DHT22;8168;49.036;7.690;2022-12-29T13:44:05;12.00;99.90
16128;DHT22;8168;49.036;7.690;2022-12-29T13:46:43;11.90;99.90
16128;DHT22;8168;49.036;7.690;2022-12-29T13:49:18;11.90;99.90
16128;DHT22;8168;49.036;7.690;2022-12-29T13:51:54;11.90;99.90
16128;DHT22;8168;49.036;7.690;2022-12-29T13:54:35;11.80;99.90
16128;DHT22;8168;49.036;7.690;2022-12-29T13:57:22;11.80;99.90
16128;DHT22;8168;49.036;7.690;2022-12-29T13:59:56;11.70;99.90
16128;DHT22;8168;49.036;7.690;2022-12-29T14:05:37;11.60;99.90
16128;DHT22;8168;49.036;7.690;2022-12-29T14:08:16;11.50;99.90
16128;DHT22;8168;49.036;7.690;2022-12-29T14:10:50;11.50;99.90
16128;DHT22;8168;49.036;7.690;2022-12-29T14:13:23;11.50;99.90
16128;DHT22;8168;49.036;7.690;2022-12-29T14:15:57;11.50;99.90
16128;DHT22;8168;49.036;7.690;2022-12-29T14:18:33;11.40;99.90
16128;DHT22;8168;49.036;7.690;2022-12-29T14:23:45;11.40;99.90
16128;DHT22;8168;49.036;7.690;2022-12-29T14:31:52;11.40;99.90
16128;DHT22;8168;49.036;7.690;2022-12-29T14:34:29;11.30;99.90
16128;DHT22;8168;49.036;7.690;2022-12-29T14:37:01;11.30;99.90
16128;DHT22;8168;49.036;7.690;2022-12-29T14:39:43;11.20;99.90
16128;DHT22;8168;49.036;7.690;2022-12-29T14:42:19;11.20;99.90
16128;DHT22;8168;49.036;7.690;2022-12-29T14:45:00;11.20;99.90
16128;DHT22;8168;49.036;7.690;2022-12-29T14:47:37;11.20;99.90
16128;DHT22;8168;49.036;7.690;2022-12-29T14:50:19;11.10;99.90
16128;DHT22;8168;49.036;7.690;2022-12-29T14:52:58;11.20;99.90
16128;DHT22;8168;49.036;7.690;2022-12-29T14:58:31;11.10;99.90
16128;DHT22;8168;49.036;7.690;2022-12-29T15:01:02;11.10;99.90
16128;DHT22;8168;49.036;7.690;2022-12-29T15:03:43;11.10;99.90
16128;DHT22;8168;49.036;7.690;2022-12-29T15:06:16;11.00;99.90
16128;DHT22;8168;49.036;7.690;2022-12-29T15:09:04;11.00;99.90
16128;DHT22;8168;49.036;7.690;2022-12-29T15:12:00;11.00;99.90
16128;DHT22;8168;49.036;7.690;2022-12-29T15:14:38;10.90;99.90
16128;DHT22;8168;49.036;7.690;2022-12-29T15:17:26;10.90;99.90
16128;DHT22;8168;49.036;7.690;2022-12-29T15:19:58;10.90;99.90
16128;DHT22;8168;49.036;7.690;2022-12-29T15:22:30;10.80;99.90
16128;DHT22;8168;49.036;7.690;2022-12-29T15:25:01;10.80;99.90
16128;DHT22;8168;49.036;7.690;2022-12-29T15:27:31;10.70;99.90
16128;DHT22;8168;49.036;7.690;2022-12-29T15:30:03;10.70;99.90
16128;DHT22;8168;49.036;7.690;2022-12-29T15:32:43;10.60;99.90
16128;DHT22;8168;49.036;7.690;2022-12-29T15:35:30;10.60;99.90
16128;DHT22;8168;49.036;7.690;2022-12-29T15:38:20;10.60;99.90
16128;DHT22;8168;49.036;7.690;2022-12-29T15:41:02;10.50;99.90
16128;DHT22;8168;49.036;7.690;2022-12-29T15:46:05;10.50;99.90
16128;DHT22;8168;49.036;7.690;2022-12-29T15:48:35;10.80;99.90
16128;DHT22;8168;49.036;7.690;2022-12-29T15:53:48;10.50;99.90
16128;DHT22;8168;49.036;7.690;2022-12-29T15:56:19;10.50;99.90
16128;DHT22;8168;49.036;7.690;2022-12-29T15:58:51;10.50;99.90
16128;DHT22;8168;49.036;7.690;2022-12-29T16:01:29;10.50;99.90
16128;DHT22;8168;49.036;7.690;2022-12-29T16:04:04;10.50;99.90
16128;DHT22;8168;49.036;7.690;2022-12-29T16:06:38;10.50;99.90
16128;DHT22;8168;49.036;7.690;2022-12-29T16:09:28;10.50;99.90
16128;DHT22;8168;49.036;7.690;2022-12-29T16:12:03;10.50;99.90
16128;DHT22;8168;49.036;7.690;2022-12-29T16:14:46;10.50;99.90
16128;DHT22;8168;49.036;7.690;2022-12-29T16:17:21;10.50;99.90
16128;DHT22;8168;49.036;7.690;2022-12-29T16:19:58;10.50;99.90
16128;DHT22;8168;49.036;7.690;2022-12-29T16:22:36;10.50;99.90
16128;DHT22;8168;49.036;7.690;2022-12-29T16:25:33;10.60;99.90
16128;DHT22;8168;49.036;7.690;2022-12-29T16:28:22;10.50;99.90
16128;DHT22;8168;49.036;7.690;2022-12-29T16:31:03;10.50;99.90
16128;DHT22;8168;49.036;7.690;2022-12-29T16:36:58;10.50;99.90
16128;DHT22;8168;49.036;7.690;2022-12-29T16:39:39;10.50;99.90
16128;DHT22;8168;49.036;7.690;2022-12-29T16:42:49;10.00;99.90
16128;DHT22;8168;49.036;7.690;2022-12-29T16:48:19;10.50;99.90
16128;DHT22;8168;49.036;7.690;2022-12-29T16:51:16;10.40;99.90
16128;DHT22;8168;49.036;7.690;2022-12-29T16:53:52;10.40;99.90
16128;DHT22;8168;49.036;7.690;2022-12-29T16:56:26;10.40;99.90
16128;DHT22;8168;49.036;7.690;2022-12-29T16:59:27;10.40;99.90
16128;DHT22;8168;49.036;7.690;2022-12-29T17:02:12;10.40;99.90
16128;DHT22;8168;49.036;7.690;2022-12-29T17:04:44;10.30;99.90
16128;DHT22;8168;49.036;7.690;2022-12-29T17:07:21;10.30;99.90
16128;DHT22;8168;49.036;7.690;2022-12-29T17:09:52;10.30;99.90
16128;DHT22;8168;49.036;7.690;2022-12-29T17:12:28;10.30;99.90
16128;DHT22;8168;49.036;7.690;2022-12-29T17:15:04;10.30;99.90
16128;DHT22;8168;49.036;7.690;2022-12-29T17:17:45;10.30;99.90
16128;DHT22;8168;49.036;7.690;2022-12-29T17:20:25;10.30;99.90
16128;DHT22;8168;49.036;7.690;2022-12-29T17:22:57;10.40;99.90
16128;DHT22;8168;49.036;7.690;2022-12-29T17:25:36;10.30;99.90
16128;DHT22;8168;49.036;7.690;2022-12-29T17:28:20;10.30;99.90
16128;DHT22;8168;49.036;7.690;2022-12-29T17:30:53;10.30;99.90
16128;DHT22;8168;49.036;7.690;2022-12-29T17:33:26;10.20;99.90
16128;DHT22;8168;49.036;7.690;2022-12-29T17:35:58;10.20;99.90
16128;DHT22;8168;49.036;7.690;2022-12-29T17:38:31;10.20;99.90
16128;DHT22;8168;49.036;7.690;2022-12-29T17:41:02;10.20;99.90
16128;DHT22;8168;49.036;7.690;2022-12-29T17:43:33;10.20;99.90
16128;DHT22;8168;49.036;7.690;2022-12-29T17:46:05;10.20;99.90
16128;DHT22;8168;49.036;7.690;2022-12-29T17:48:37;10.30;99.90
16128;DHT22;8168;49.036;7.690;2022-12-29T17:51:08;10.20;99.90
16128;DHT22;8168;49.036;7.690;2022-12-29T17:53:40;10.20;99.90
16128;DHT22;8168;49.036;7.690;2022-12-29T17:56:10;10.10;99.90
16128;DHT22;8168;49.036;7.690;2022-12-29T17:58:41;10.10;99.90
16128;DHT22;8168;49.036;7.690;2022-12-29T18:01:12;10.10;99.90
16128;DHT22;8168;49.036;7.690;2022-12-29T18:03:43;10.10;99.90
16128;DHT22;8168;49.036;7.690;2022-12-29T18:06:14;10.10;99.90
16128;DHT22;8168;49.036;7.690;2022-12-29T18:08:44;10.00;99.90
16128;DHT22;8168;49.036;7.690;2022-12-29T18:11:23;10.00;99.90
16128;DHT22;8168;49.036;7.690;2022-12-29T18:13:54;10.00;99.90
16128;DHT22;8168;49.036;7.690;2022-12-29T18:16:26;10.00;99.90
16128;DHT22;8168;49.036;7.690;2022-12-29T18:18:56;10.00;99.90
16128;DHT22;8168;49.036;7.690;2022-12-29T18:21:27;10.00;99.90
16128;DHT22;8168;49.036;7.690;2022-12-29T18:23:57;10.00;99.90
16128;DHT22;8168;49.036;7.690;2022-12-29T18:26:29;9.90;99.90
16128;DHT22;8168;49.036;7.690;2022-12-29T18:29:05;9.90;99.90
16128;DHT22;8168;49.036;7.690;2022-12-29T18:31:36;9.90;99.90
16128;DHT22;8168;49.036;7.690;2022-12-29T18:34:12;9.90;99.90
16128;DHT22;8168;49.036;7.690;2022-12-29T18:36:43;10.00;99.90
16128;DHT22;8168;49.036;7.690;2022-12-29T18:39:14;9.90;99.90
16128;DHT22;8168;49.036;7.690;2022-12-29T18:41:45;9.90;99.90
16128;DHT22;8168;49.036;7.690;2022-12-29T18:44:15;9.90;99.90
16128;DHT22;8168;49.036;7.690;2022-12-29T18:46:46;9.80;99.90
16128;DHT22;8168;49.036;7.690;2022-12-29T18:49:17;9.90;99.90
16128;DHT22;8168;49.036;7.690;2022-12-29T18:51:47;9.90;99.90
16128;DHT22;8168;49.036;7.690;2022-12-29T18:54:28;9.80;99.90
16128;DHT22;8168;49.036;7.690;2022-12-29T18:56:59;9.80;99.90
16128;DHT22;8168;49.036;7.690;2022-12-29T18:59:30;9.90;99.90
16128;DHT22;8168;49.036;7.690;2022-12-29T19:02:00;9.80;99.90
16128;DHT22;8168;49.036;7.690;2022-12-29T19:04:31;9.90;99.90
16128;DHT22;8168;49.036;7.690;2022-12-29T19:07:01;9.90;99.90
16128;DHT22;8168;49.036;7.690;2022-12-29T19:09:32;9.90;99.90
16128;DHT22;8168;49.036;7.690;2022-12-29T19:12:03;9.90;99.90
16128;DHT22;8168;49.036;7.690;2022-12-29T19:14:33;9.80;99.90
16128;DHT22;8168;49.036;7.690;2022-12-29T19:17:04;9.90;99.90
16128;DHT22;8168;49.036;7.690;2022-12-29T19:19:41;9.90;99.90